Malone, Alabama
Current Conditions -  °F | °C
As of 10:53 PM on Wednesday 26 Nov 2014 (Local Time) from KANB Reporting Station
Scattered Clouds Scattered Clouds  
Wind Chill: 50°   Ceiling: Unl
Heat Index: 50°   Visibility: 10mi
Dew Point: 23°   Wind: 12mph
Humidity: 35%   Direction: 290°WNW
Pressure: 30.13"   Gusts: 24mph
Location:  33.2829°N, 85.491°W
Report Text: KANB 270453Z AUTO 29010G21KT 250V320 10SM SCT085 10/M05 A3013 RMK AO2 SLP205 T01001050
Loading
Personal Weather Stations






























Interactive Weather Map New forecast layout! Learn more

10-Day Weather Forecast

Advertisements
Track Severe Weather on mobile